Time;durP1;ratioP1;P1;durP2;ratioP2;P2;SDS_P1;SDS_P2;PMS_P1;PMS_P2;Temp;Humidity;BMP_temperature;BMP_pressure;BME280_temperature;BME280_humidity;BME280_pressure;Samples;Min_cycle;Max_cycle;Signal;HPM_P1;HPM_P2
2024/01/19 00:01:20;;;;;;;;;;;282.00;2278.40;;;;;;4918816;29;19907;-79
2024/01/19 00:03:46;;;;;;;;;;;281.90;2278.40;;;;;;4900564;29;20373;-79
2024/01/19 00:06:12;;;;;;;;;;;281.90;2278.40;;;;;;4901603;29;19946;-80
2024/01/19 00:08:37;;;;;;;;;;;281.90;2278.40;;;;;;4901000;29;19997;-79
2024/01/19 00:11:03;;;;;;;;;;;282.00;2278.40;;;;;;4895221;29;20384;-80
2024/01/19 00:13:28;;;;;;;;;;;282.00;2278.40;;;;;;4913513;29;19907;-79
2024/01/19 00:15:55;;;;;;;;;;;282.10;2278.40;;;;;;4901453;29;19907;-80
2024/01/19 00:18:22;;;;;;;;;;;282.20;2278.40;;;;;;4901145;29;19907;-79
2024/01/19 00:20:48;;;;;;;;;;;282.30;2278.40;;;;;;4901156;29;19927;-80
2024/01/19 00:23:14;;;;;;;;;;;282.40;2278.40;;;;;;4901057;29;19929;-79
2024/01/19 00:25:40;;;;;;;;;;;282.50;2278.40;;;;;;4918496;29;19907;-79
2024/01/19 00:28:06;;;;;;;;;;;282.50;2278.40;;;;;;4901205;29;19922;-80
2024/01/19 00:30:32;;;;;;;;;;;282.50;2278.40;;;;;;4899329;29;19907;-80
2024/01/19 00:32:57;;;;;;;;;;;307.30;2304.00;;;;;;4917660;29;19907;-80
2024/01/19 00:35:23;;;;;;;;;;;307.20;2304.00;;;;;;4901184;29;19917;-79
2024/01/19 00:37:48;;;;;;;;;;;282.50;2278.40;;;;;;4910339;29;20313;-80
2024/01/19 00:40:14;;;;;;;;;;;307.20;2304.00;;;;;;4918566;29;19914;-79
2024/01/19 00:42:41;;;;;;;;;;;307.20;2304.00;;;;;;4900925;29;20305;-80
2024/01/19 00:45:09;;;;;;;;;;;307.20;2304.00;;;;;;4900782;29;19907;-79
2024/01/19 00:47:35;;;;;;;;;;;307.30;2304.00;;;;;;4900956;29;20440;-80
2024/01/19 00:50:04;;;;;;;;;;;307.30;2304.00;;;;;;4894791;29;20006;-79
2024/01/19 00:52:30;;;;;;;;;;;307.40;2304.00;;;;;;4916532;29;20010;-79
2024/01/19 00:54:55;;;;;;;;;;;307.50;2304.00;;;;;;4916530;29;19997;-80
2024/01/19 00:57:21;;;;;;;;;;;307.60;2304.00;;;;;;4917848;29;19907;-80
2024/01/19 00:59:47;;;;;;;;;;;307.50;2304.00;;;;;;4903615;29;20365;-79
2024/01/19 01:02:13;;;;;;;;;;;307.50;2304.00;;;;;;4900480;29;19911;-80
2024/01/19 01:04:38;;;;;;;;;;;307.40;2304.00;;;;;;4917463;29;19926;-80
2024/01/19 01:07:04;;;;;;;;;;;307.20;2304.00;;;;;;4917378;29;20353;-79
2024/01/19 01:09:30;;;;;;;;;;;307.20;2304.00;;;;;;4900511;29;19915;-80
2024/01/19 01:11:55;;;;;;;;;;;282.50;2278.40;;;;;;4900339;29;19962;-80
2024/01/19 01:14:21;;;;;;;;;;;282.50;2278.40;;;;;;4900359;29;20013;-79
2024/01/19 01:16:47;;;;;;;;;;;282.50;2278.40;;;;;;4891800;29;20249;-79
2024/01/19 01:19:12;;;;;;;;;;;307.20;2304.00;;;;;;4917706;29;19934;-79
2024/01/19 01:21:38;;;;;;;;;;;282.50;2278.40;;;;;;4888879;29;19945;-81
2024/01/19 01:24:04;;;;;;;;;;;307.20;2304.00;;;;;;4900280;29;20006;-79
2024/01/19 01:26:29;;;;;;;;;;;307.30;2304.00;;;;;;4917065;29;20258;-79
2024/01/19 01:28:55;;;;;;;;;;;307.40;2304.00;;;;;;4916097;29;19922;-80
2024/01/19 01:31:22;;;;;;;;;;;307.40;2304.00;;;;;;4917553;29;19971;-80
2024/01/19 01:33:48;;;;;;;;;;;307.60;2304.00;;;;;;4900010;29;19913;-80
2024/01/19 01:36:14;;;;;;;;;;;307.40;2304.00;;;;;;4899637;29;19962;-80
2024/01/19 01:38:39;;;;;;;;;;;307.40;2304.00;;;;;;4917263;29;19911;-80
2024/01/19 01:41:05;;;;;;;;;;;307.60;2304.00;;;;;;4917526;29;20361;-80
2024/01/19 01:43:31;;;;;;;;;;;307.60;2304.00;;;;;;4899178;29;19932;-79
2024/01/19 01:45:57;;;;;;;;;;;307.40;2304.00;;;;;;4900001;29;19907;-80
2024/01/19 01:48:24;;;;;;;;;;;307.40;2304.00;;;;;;4897948;29;19919;-80
2024/01/19 01:50:49;;;;;;;;;;;307.40;2304.00;;;;;;4899655;29;19970;-80
2024/01/19 01:53:18;;;;;;;;;;;307.60;2304.00;;;;;;4898907;29;19998;-78
2024/01/19 01:55:44;;;;;;;;;;;307.70;2304.00;;;;;;4911401;29;19915;-79
2024/01/19 01:58:10;;;;;;;;;;;307.60;2304.00;;;;;;4895563;29;19907;-80
2024/01/19 02:00:36;;;;;;;;;;;307.50;2304.00;;;;;;4899704;29;19907;-79
2024/01/19 02:03:03;;;;;;;;;;;307.50;2304.00;;;;;;4899263;29;19911;-80
2024/01/19 02:05:29;;;;;;;;;;;307.50;2304.00;;;;;;4899945;29;19955;-78
2024/01/19 02:07:55;;;;;;;;;;;307.60;2304.00;;;;;;4916848;29;19926;-80
2024/01/19 02:10:20;;;;;;;;;;;307.60;2304.00;;;;;;4888259;29;20005;-79
2024/01/19 02:12:46;;;;;;;;;;;307.30;2304.00;;;;;;4899582;29;20368;-80
2024/01/19 02:15:22;;;;;;;;;;;307.20;2304.00;;;;;;4899677;29;20017;-79
2024/01/19 02:17:51;;;;;;;;;;;282.50;2201.60;;;;;;4915374;29;19971;-80
2024/01/19 02:20:17;;;;;;;;;;;282.50;2278.40;;;;;;4896344;29;19915;-79
2024/01/19 02:22:43;;;;;;;;;;;282.50;2278.40;;;;;;4897425;29;19922;-80
2024/01/19 02:25:09;;;;;;;;;;;282.30;2278.40;;;;;;4878640;29;19912;-79
2024/01/19 02:27:35;;;;;;;;;;;282.40;2278.40;;;;;;4883699;29;19916;-79
2024/01/19 02:30:01;;;;;;;;;;;282.50;2278.40;;;;;;4884627;29;20358;-80
2024/01/19 02:32:28;;;;;;;;;;;282.40;2278.40;;;;;;4884742;29;20013;-79
2024/01/19 02:34:54;;;;;;;;;;;282.40;2278.40;;;;;;4884533;29;19971;-79
2024/01/19 02:37:20;;;;;;;;;;;282.30;2278.40;;;;;;4884395;29;19950;-79
2024/01/19 02:39:46;;;;;;;;;;;282.50;2278.40;;;;;;4885068;29;19963;-80
2024/01/19 02:42:11;;;;;;;;;;;282.30;2278.40;;;;;;4901576;29;19908;-79
2024/01/19 02:44:37;;;;;;;;;;;282.50;2278.40;;;;;;4884818;29;19907;-79
2024/01/19 02:47:03;;;;;;;;;;;282.50;2278.40;;;;;;4885108;29;19911;-79
2024/01/19 02:49:28;;;;;;;;;;;307.20;2304.00;;;;;;4901559;29;19915;-79
2024/01/19 02:51:54;;;;;;;;;;;307.30;2304.00;;;;;;4901635;29;19912;-79
2024/01/19 02:54:20;;;;;;;;;;;307.30;2304.00;;;;;;4895841;29;19915;-79
2024/01/19 02:56:45;;;;;;;;;;;307.30;2048.00;;;;;;4900945;29;19971;-79
2024/01/19 02:59:11;;;;;;;;;;;307.30;2099.20;;;;;;4890337;29;19907;-80
2024/01/19 03:01:36;;;;;;;;;;;307.40;2304.00;;;;;;4884958;29;19907;-80
2024/01/19 03:04:02;;;;;;;;;;;307.50;2304.00;;;;;;4884056;29;19908;-79
2024/01/19 03:06:28;;;;;;;;;;;307.20;2304.00;;;;;;4884344;29;20422;-79
2024/01/19 03:08:54;;;;;;;;;;;307.20;2304.00;;;;;;4884663;29;19919;-80
2024/01/19 03:11:20;;;;;;;;;;;307.20;2304.00;;;;;;4901476;29;19963;-79
2024/01/19 03:13:45;;;;;;;;;;;307.30;2304.00;;;;;;4884418;29;20368;-79
2024/01/19 03:16:11;;;;;;;;;;;307.50;2304.00;;;;;;4901183;29;19908;-80
2024/01/19 03:18:36;;;;;;;;;;;307.60;2124.80;;;;;;4883896;29;20345;-79
2024/01/19 03:21:02;;;;;;;;;;;307.60;2304.00;;;;;;4899160;29;19919;-80
2024/01/19 03:23:27;;;;;;;;;;;307.60;2124.80;;;;;;4883446;29;19947;-79
2024/01/19 03:25:54;;;;;;;;;;;307.70;2304.00;;;;;;4900903;29;20318;-79
2024/01/19 03:28:19;;;;;;;;;;;307.60;1945.60;;;;;;4900434;29;19921;-80
2024/01/19 03:30:45;;;;;;;;;;;307.70;2099.20;;;;;;4884013;29;19907;-80
2024/01/19 03:33:11;;;;;;;;;;;307.70;2304.00;;;;;;4900780;29;20366;-80
2024/01/19 03:35:36;;;;;;;;;;;307.70;2304.00;;;;;;4883975;29;19907;-80
2024/01/19 03:38:02;;;;;;;;;;;307.80;2304.00;;;;;;4883734;29;19908;-78
2024/01/19 03:40:27;;;;;;;;;;;307.80;2304.00;;;;;;4884025;29;20425;-79
2024/01/19 03:42:53;;;;;;;;;;;307.80;2304.00;;;;;;4883539;29;19918;-79
2024/01/19 03:45:18;;;;;;;;;;;307.70;2304.00;;;;;;4899917;29;19908;-79
2024/01/19 03:47:44;;;;;;;;;;;307.80;2304.00;;;;;;4899419;29;19957;-79
2024/01/19 03:50:10;;;;;;;;;;;307.60;2304.00;;;;;;4900614;29;19911;-79
2024/01/19 03:52:37;;;;;;;;;;;307.80;2304.00;;;;;;4900417;29;20010;-79
2024/01/19 03:55:06;;;;;;;;;;;307.80;2304.00;;;;;;4898940;29;19971;-80
2024/01/19 03:57:31;;;;;;;;;;;307.80;2304.00;;;;;;4883276;29;19907;-80
2024/01/19 03:59:57;;;;;;;;;;;307.70;2304.00;;;;;;4886324;29;19914;-80
2024/01/19 04:02:23;;;;;;;;;;;307.80;2304.00;;;;;;4882239;29;19915;-79
2024/01/19 04:04:48;;;;;;;;;;;307.70;2304.00;;;;;;4881471;29;19930;-79
2024/01/19 04:07:14;;;;;;;;;;;307.80;2304.00;;;;;;4880854;29;19962;-79
2024/01/19 04:09:40;;;;;;;;;;;307.80;2304.00;;;;;;4884863;29;20392;-79
2024/01/19 04:12:11;;;;;;;;;;;307.80;2304.00;;;;;;4900399;29;19908;-80
2024/01/19 04:14:37;;;;;;;;;;;307.70;2304.00;;;;;;4883470;29;19994;-80
2024/01/19 04:17:03;;;;;;;;;;;307.70;2304.00;;;;;;4883226;29;19939;-80
2024/01/19 04:19:28;;;;;;;;;;;307.70;2304.00;;;;;;4883253;29;20273;-80
2024/01/19 04:21:54;;;;;;;;;;;307.70;2304.00;;;;;;4895320;29;19939;-79
2024/01/19 04:24:19;;;;;;;;;;;307.70;2304.00;;;;;;4899479;29;19970;-80
2024/01/19 04:26:45;;;;;;;;;;;307.60;2304.00;;;;;;4918390;29;19907;-80
2024/01/19 04:29:11;;;;;;;;;;;307.70;2304.00;;;;;;4918449;29;20323;-80
2024/01/19 04:31:36;;;;;;;;;;;307.60;2304.00;;;;;;4918402;29;19914;-80
2024/01/19 04:34:02;;;;;;;;;;;307.50;2304.00;;;;;;4918264;29;19911;-81
2024/01/19 04:36:28;;;;;;;;;;;307.40;2304.00;;;;;;4901987;29;19907;-80
2024/01/19 04:38:53;;;;;;;;;;;307.40;2304.00;;;;;;4901113;29;20254;-80
2024/01/19 04:41:19;;;;;;;;;;;307.40;2304.00;;;;;;4918538;29;20254;-80
2024/01/19 04:43:45;;;;;;;;;;;307.40;2304.00;;;;;;4918089;29;20358;-80
2024/01/19 04:46:10;;;;;;;;;;;307.50;2304.00;;;;;;4901726;29;19914;-80
2024/01/19 04:48:36;;;;;;;;;;;307.40;2304.00;;;;;;4900651;29;20017;-80
2024/01/19 04:51:02;;;;;;;;;;;307.40;2304.00;;;;;;4901078;29;19907;-80
2024/01/19 04:53:28;;;;;;;;;;;307.30;2304.00;;;;;;4916375;29;19915;-80
2024/01/19 04:55:54;;;;;;;;;;;282.50;2278.40;;;;;;4901367;29;19907;-80
2024/01/19 04:58:19;;;;;;;;;;;282.50;2278.40;;;;;;4916754;29;19908;-80
2024/01/19 05:00:45;;;;;;;;;;;282.50;2278.40;;;;;;4916776;29;19907;-80
2024/01/19 05:03:10;;;;;;;;;;;282.30;2278.40;;;;;;4901051;29;20397;-80
2024/01/19 05:05:36;;;;;;;;;;;282.20;2278.40;;;;;;4901239;29;19907;-80
2024/01/19 05:08:01;;;;;;;;;;;282.20;2278.40;;;;;;4901021;29;19915;-80
2024/01/19 05:10:27;;;;;;;;;;;282.20;2278.40;;;;;;4901197;29;19961;-80
2024/01/19 05:12:53;;;;;;;;;;;282.20;2278.40;;;;;;4916514;29;19911;-80
2024/01/19 05:15:18;;;;;;;;;;;282.20;2278.40;;;;;;4890340;29;20277;-80
2024/01/19 05:17:44;;;;;;;;;;;282.10;2278.40;;;;;;4901081;29;20369;-80
2024/01/19 05:20:10;;;;;;;;;;;282.00;2278.40;;;;;;4917197;29;19995;-80
2024/01/19 05:22:35;;;;;;;;;;;282.10;2278.40;;;;;;4900636;29;19914;-79
2024/01/19 05:25:02;;;;;;;;;;;281.90;2278.40;;;;;;4900995;29;19907;-79
2024/01/19 05:27:28;;;;;;;;;;;281.70;2278.40;;;;;;4900841;29;19930;-79
2024/01/19 05:29:54;;;;;;;;;;;281.70;2278.40;;;;;;4917947;29;20368;-80
2024/01/19 05:32:19;;;;;;;;;;;256.90;2252.80;;;;;;4901001;29;19915;-80
2024/01/19 05:34:45;;;;;;;;;;;256.90;2252.80;;;;;;4900873;29;20385;-80
2024/01/19 05:37:10;;;;;;;;;;;256.80;2252.80;;;;;;4900979;29;19907;-80
2024/01/19 05:39:36;;;;;;;;;;;256.70;2176.00;;;;;;4900065;29;19918;-80
2024/01/19 05:42:02;;;;;;;;;;;256.70;2252.80;;;;;;4901056;29;19908;-80
2024/01/19 05:44:28;;;;;;;;;;;256.60;2252.80;;;;;;4917821;29;20457;-80
2024/01/19 05:46:54;;;;;;;;;;;256.70;2252.80;;;;;;4900949;29;19911;-80
2024/01/19 05:49:19;;;;;;;;;;;256.60;2252.80;;;;;;4900890;29;19938;-80
2024/01/19 05:51:45;;;;;;;;;;;256.50;2252.80;;;;;;4900821;29;19907;-80
2024/01/19 05:54:11;;;;;;;;;;;256.50;2252.80;;;;;;4911225;29;19939;-80
2024/01/19 05:56:37;;;;;;;;;;;256.40;2252.80;;;;;;4915399;29;19990;-78
2024/01/19 05:59:02;;;;;;;;;;;256.30;2252.80;;;;;;4899974;29;20388;-79
2024/01/19 06:01:28;;;;;;;;;;;256.30;2252.80;;;;;;4920916;29;19946;-79
2024/01/19 06:03:54;;;;;;;;;;;256.20;2252.80;;;;;;4903997;29;19911;-80
2024/01/19 06:06:19;;;;;;;;;;;256.30;2252.80;;;;;;4908905;29;19907;-79
2024/01/19 06:08:45;;;;;;;;;;;256.30;2048.00;;;;;;4914337;29;19915;-79
2024/01/19 06:11:10;;;;;;;;;;;256.20;2176.00;;;;;;4926765;29;19906;-80
2024/01/19 06:13:38;;;;;;;;;;;256.10;1971.20;;;;;;4903288;29;19907;-80
2024/01/19 06:16:04;;;;;;;;;;;231.30;2252.80;;;;;;4904108;29;19911;-80
2024/01/19 06:18:29;;;;;;;;;;;231.30;2201.60;;;;;;4903464;29;19938;-80
2024/01/19 06:20:55;;;;;;;;;;;231.10;2176.00;;;;;;4903325;29;19918;-79
2024/01/19 06:23:20;;;;;;;;;;;231.00;2227.20;;;;;;4901512;29;19918;-78
2024/01/19 06:25:46;;;;;;;;;;;230.90;2252.80;;;;;;4903168;29;19946;-79
2024/01/19 06:28:12;;;;;;;;;;;230.90;2252.80;;;;;;4902853;29;19922;-79
2024/01/19 06:30:38;;;;;;;;;;;;;;;;;;4920009;29;19918;-77
2024/01/19 06:33:07;;;;;;;;;;;230.60;2252.80;;;;;;4920081;29;19918;-79
2024/01/19 06:35:33;;;;;;;;;;;230.60;2099.20;;;;;;4918995;29;19915;-78
2024/01/19 06:37:59;;;;;;;;;;;230.40;2252.80;;;;;;4913319;29;19907;-79
2024/01/19 06:40:24;;;;;;;;;;;230.40;2252.80;;;;;;4903187;29;19929;-80
2024/01/19 06:42:50;;;;;;;;;;;205.70;2252.80;;;;;;4903122;29;19911;-79
2024/01/19 06:45:16;;;;;;;;;;;205.60;1868.80;;;;;;4909614;29;19993;-82
2024/01/19 06:47:42;;;;;;;;;;;205.60;2227.20;;;;;;4916906;29;20384;-78
2024/01/19 06:50:07;;;;;;;;;;;205.70;2252.80;;;;;;4903609;29;19907;-78
2024/01/19 06:52:33;;;;;;;;;;;205.70;2252.80;;;;;;4919177;29;19915;-76
2024/01/19 06:54:59;;;;;;;;;;;205.70;2252.80;;;;;;4901502;29;19924;-80
2024/01/19 06:57:24;;;;;;;;;;;205.40;2252.80;;;;;;4919895;29;20057;-75
2024/01/19 06:59:50;;;;;;;;;;;205.50;2252.80;;;;;;4902053;29;19914;-76
2024/01/19 07:02:16;;;;;;;;;;;205.40;2252.80;;;;;;4918798;29;19911;-83
2024/01/19 07:04:42;;;;;;;;;;;205.20;2252.80;;;;;;4900181;29;19911;-78
2024/01/19 07:07:07;;;;;;;;;;;205.10;2252.80;;;;;;4901335;29;20461;-78
2024/01/19 07:09:33;;;;;;;;;;;204.90;2252.80;;;;;;4919240;29;19923;-77
2024/01/19 07:11:58;;;;;;;;;;;204.80;2252.80;;;;;;4917907;29;19917;-77
2024/01/19 07:14:25;;;;;;;;;;;180.10;2252.80;;;;;;4919190;29;20280;-77
2024/01/19 07:16:50;;;;;;;;;;;180.00;2252.80;;;;;;4896160;29;19922;-78
2024/01/19 07:19:16;;;;;;;;;;;180.10;2252.80;;;;;;4919365;29;19911;-77
2024/01/19 07:21:42;;;;;;;;;;;179.90;2252.80;;;;;;4918314;29;19919;-76
2024/01/19 07:24:09;;;;;;;;;;;179.90;2252.80;;;;;;4902098;29;19935;-76
2024/01/19 07:26:35;;;;;;;;;;;179.80;2252.80;;;;;;4919071;29;19911;-77
2024/01/19 07:29:04;;;;;;;;;;;179.70;2252.80;;;;;;4919047;29;19998;-77
2024/01/19 07:31:30;;;;;;;;;;;179.70;2252.80;;;;;;4890686;29;19939;-77
2024/01/19 07:33:56;;;;;;;;;;;179.70;2252.80;;;;;;4896195;29;19912;-78
2024/01/19 07:36:21;;;;;;;;;;;179.70;2252.80;;;;;;4901851;29;20396;-76
2024/01/19 07:38:47;;;;;;;;;;;179.60;2252.80;;;;;;4914617;29;19907;-78
2024/01/19 07:41:12;;;;;;;;;;;179.60;2252.80;;;;;;4916614;29;19906;-77
2024/01/19 07:43:38;;;;;;;;;;;179.40;2252.80;;;;;;4917474;29;19915;-77
2024/01/19 07:46:04;;;;;;;;;;;179.40;2252.80;;;;;;4898160;29;19961;-78
2024/01/19 07:48:29;;;;;;;;;;;179.30;2252.80;;;;;;4901373;29;20255;-76
2024/01/19 07:50:55;;;;;;;;;;;179.40;2252.80;;;;;;4902670;29;19907;-79
2024/01/19 07:53:21;;;;;;;;;;;179.40;2252.80;;;;;;4901791;29;19923;-77
2024/01/19 07:55:46;;;;;;;;;;;179.40;2252.80;;;;;;4902333;29;20454;-78
2024/01/19 07:58:12;;;;;;;;;;;179.40;2252.80;;;;;;4918390;29;20400;-78
2024/01/19 08:00:37;;;;;;;;;;;179.40;2252.80;;;;;;4897099;29;20049;-78
2024/01/19 08:03:04;;;;;;;;;;;179.40;2252.80;;;;;;4901625;29;20288;-79
2024/01/19 08:05:29;;;;;;;;;;;179.40;2252.80;;;;;;4902208;29;20347;-78
2024/01/19 08:07:55;;;;;;;;;;;179.30;2252.80;;;;;;4900327;29;20054;-78
2024/01/19 08:10:20;;;;;;;;;;;179.30;2252.80;;;;;;4901878;29;19911;-78
2024/01/19 08:12:46;;;;;;;;;;;179.40;2252.80;;;;;;4900818;29;19907;-78
2024/01/19 08:15:13;;;;;;;;;;;179.30;2252.80;;;;;;4918224;29;19907;-78
2024/01/19 08:17:38;;;;;;;;;;;179.20;2252.80;;;;;;4901236;29;19907;-78
2024/01/19 08:20:04;;;;;;;;;;;179.40;2252.80;;;;;;4898918;29;19914;-79
2024/01/19 08:22:30;;;;;;;;;;;179.40;2252.80;;;;;;4893130;29;19971;-78
2024/01/19 08:24:57;;;;;;;;;;;179.50;2252.80;;;;;;4894039;29;19907;-78
2024/01/19 08:27:22;;;;;;;;;;;179.40;2252.80;;;;;;4897811;29;19907;-78
2024/01/19 08:29:48;;;;;;;;;;;179.50;2252.80;;;;;;4891401;29;20298;-80
2024/01/19 08:32:13;;;;;;;;;;;179.30;2252.80;;;;;;4914596;29;19915;-75
2024/01/19 08:34:39;;;;;;;;;;;179.20;2252.80;;;;;;4918011;29;19919;-77
2024/01/19 08:37:05;;;;;;;;;;;179.20;2252.80;;;;;;4892353;29;19914;-77
2024/01/19 08:39:30;;;;;;;;;;;179.40;2252.80;;;;;;4916738;29;19907;-78
2024/01/19 08:41:56;;;;;;;;;;;179.30;2252.80;;;;;;4899474;29;19907;-77
2024/01/19 08:44:22;;;;;;;;;;;179.50;2252.80;;;;;;4892626;29;20002;-77
2024/01/19 08:46:48;;;;;;;;;;;179.30;2252.80;;;;;;4916479;29;19914;-76
2024/01/19 08:49:14;;;;;;;;;;;179.30;2252.80;;;;;;4915043;29;19922;-76
2024/01/19 08:51:40;;;;;;;;;;;154.50;2252.80;;;;;;4913259;29;19914;-76
2024/01/19 08:54:06;;;;;;;;;;;154.50;2252.80;;;;;;4916895;29;20002;-78
2024/01/19 08:56:42;;;;;;;;;;;154.50;2252.80;;;;;;5043075;28;19913;-77
2024/01/19 08:59:08;;;;;;;;;;;154.30;2252.80;;;;;;5021564;28;20004;-76
2024/01/19 09:01:34;;;;;;;;;;;154.20;2252.80;;;;;;5026039;28;19940;-76
2024/01/19 09:04:00;;;;;;;;;;;154.10;2252.80;;;;;;5045503;28;20276;-76
2024/01/19 09:06:25;;;;;;;;;;;154.20;2252.80;;;;;;5028643;28;19921;-77
2024/01/19 09:08:51;;;;;;;;;;;154.20;2252.80;;;;;;5039535;28;20270;-77
2024/01/19 09:11:16;;;;;;;;;;;154.20;2252.80;;;;;;5029429;28;19941;-77
2024/01/19 09:13:42;;;;;;;;;;;154.20;2252.80;;;;;;5029104;28;20336;-78
2024/01/19 09:16:08;;;;;;;;;;;154.30;2252.80;;;;;;5020482;28;19917;-77
2024/01/19 09:18:35;;;;;;;;;;;154.40;2252.80;;;;;;5030249;28;19932;-77
2024/01/19 09:21:00;;;;;;;;;;;154.20;2252.80;;;;;;5028604;28;19913;-77
2024/01/19 09:23:26;;;;;;;;;;;154.20;2252.80;;;;;;5029893;28;19921;-77
2024/01/19 09:25:52;;;;;;;;;;;154.30;2252.80;;;;;;5027081;28;20000;-78
2024/01/19 09:28:18;;;;;;;;;;;154.20;2252.80;;;;;;5028907;28;19913;-77
2024/01/19 09:30:44;;;;;;;;;;;154.20;2252.80;;;;;;5026742;28;19964;-77
2024/01/19 09:33:09;;;;;;;;;;;153.90;2252.80;;;;;;5026163;28;19957;-79
2024/01/19 09:35:35;;;;;;;;;;;153.80;2252.80;;;;;;5024351;28;20342;-78
2024/01/19 09:38:00;;;;;;;;;;;153.90;2252.80;;;;;;5023312;28;19921;-79
2024/01/19 09:40:26;;;;;;;;;;;153.90;2252.80;;;;;;5028258;28;19941;-79
2024/01/19 09:42:55;;;;;;;;;;;154.00;2252.80;;;;;;5020766;28;19916;-77
2024/01/19 09:45:22;;;;;;;;;;;153.90;2252.80;;;;;;5026763;28;19963;-77
2024/01/19 09:47:57;;;;;;;;;;;153.90;2252.80;;;;;;5024253;28;19918;-79
2024/01/19 09:50:25;;;;;;;;;;;154.00;2252.80;;;;;;5022551;28;19917;-79
2024/01/19 09:52:53;;;;;;;;;;;153.90;2252.80;;;;;;5029817;28;19917;-78
2024/01/19 09:55:19;;;;;;;;;;;154.10;2252.80;;;;;;5034084;28;19926;-78
2024/01/19 09:57:46;;;;;;;;;;;154.10;2252.80;;;;;;5029016;28;19916;-79
2024/01/19 10:00:12;;;;;;;;;;;154.20;2252.80;;;;;;5028933;28;19913;-78
2024/01/19 10:02:41;;;;;;;;;;;154.20;2252.80;;;;;;5029213;28;19910;-78
2024/01/19 10:05:07;;;;;;;;;;;154.10;2252.80;;;;;;5028560;28;20420;-77
2024/01/19 10:07:33;;;;;;;;;;;154.20;2252.80;;;;;;5017771;28;19910;-77
2024/01/19 10:09:59;;;;;;;;;;;154.20;2252.80;;;;;;5011084;28;19909;-77
2024/01/19 10:12:25;;;;;;;;;;;154.30;2252.80;;;;;;5016017;28;20282;-78
2024/01/19 10:14:50;;;;;;;;;;;154.20;2252.80;;;;;;5015988;28;19961;-78
2024/01/19 10:17:17;;;;;;;;;;;154.20;2252.80;;;;;;5015239;28;19952;-77
2024/01/19 10:19:42;;;;;;;;;;;154.10;2252.80;;;;;;5024033;28;19914;-77
2024/01/19 10:22:25;;;;;;;;;;;154.20;2252.80;;;;;;5016681;28;19921;-78
2024/01/19 10:25:12;;;;;;;;;;;154.20;2252.80;;;;;;5029923;28;19994;-79
2024/01/19 10:27:41;;;;;;;;;;;154.20;2252.80;;;;;;5030891;28;20266;-78
2024/01/19 10:30:11;;;;;;;;;;;154.10;2252.80;;;;;;5013834;28;19909;-77
2024/01/19 10:32:37;;;;;;;;;;;154.10;2252.80;;;;;;5017791;28;20019;-76
2024/01/19 10:35:13;;;;;;;;;;;154.10;2252.80;;;;;;5014506;28;20369;-78
2024/01/19 10:37:39;;;;;;;;;;;153.90;2252.80;;;;;;5029365;28;19909;-79
2024/01/19 10:40:15;;;;;;;;;;;154.00;2252.80;;;;;;5010112;28;19918;-77
2024/01/19 10:42:41;;;;;;;;;;;154.00;2252.80;;;;;;5009771;28;19994;-77
2024/01/19 10:45:18;;;;;;;;;;;154.00;2252.80;;;;;;5009845;28;19909;-77
2024/01/19 10:47:47;;;;;;;;;;;153.90;2252.80;;;;;;5010865;28;19996;-78
2024/01/19 10:50:14;;;;;;;;;;;153.90;2252.80;;;;;;5021824;28;19910;-78
2024/01/19 10:52:59;;;;;;;;;;;153.60;2252.80;;;;;;5031366;28;19909;-79
2024/01/19 10:55:25;;;;;;;;;;;153.70;2252.80;;;;;;5027669;28;20330;-78
2024/01/19 10:57:52;;;;;;;;;;;153.60;2252.80;;;;;;5011391;28;19920;-78
2024/01/19 11:00:18;;;;;;;;;;;128.90;2252.80;;;;;;5029688;28;19909;-78
2024/01/19 11:02:47;;;;;;;;;;;128.70;2252.80;;;;;;5014426;28;19910;-78
2024/01/19 11:05:12;;;;;;;;;;;128.70;2252.80;;;;;;5012987;28;19917;-77
2024/01/19 11:07:39;;;;;;;;;;;128.60;2252.80;;;;;;5010427;28;19909;-78
2024/01/19 11:10:06;;;;;;;;;;;128.60;2252.80;;;;;;5015562;28;19963;-79
2024/01/19 11:12:35;;;;;;;;;;;128.30;2252.80;;;;;;5013322;28;20004;-77
2024/01/19 11:15:01;;;;;;;;;;;128.20;2252.80;;;;;;5024262;28;19925;-78
2024/01/19 11:17:27;;;;;;;;;;;128.00;2252.80;;;;;;5010132;28;20255;-78
2024/01/19 11:19:52;;;;;;;;;;;103.30;2227.20;;;;;;5003241;28;20051;-78
2024/01/19 11:22:18;;;;;;;;;;;103.30;2227.20;;;;;;5006744;28;19960;-78
2024/01/19 11:24:46;;;;;;;;;;;128.00;2252.80;;;;;;5014504;28;19925;-78
2024/01/19 11:27:23;;;;;;;;;;;103.30;2227.20;;;;;;5011862;28;19913;-76
2024/01/19 11:29:51;;;;;;;;;;;103.30;2227.20;;;;;;5002155;28;19920;-78
2024/01/19 11:32:18;;;;;;;;;;;103.30;2227.20;;;;;;5010457;28;20378;-77
2024/01/19 11:34:49;;;;;;;;;;;103.30;2227.20;;;;;;5013164;28;19924;-78
2024/01/19 11:37:34;;;;;;;;;;;128.00;2252.80;;;;;;5013273;28;19909;-77
2024/01/19 11:40:00;;;;;;;;;;;128.00;2252.80;;;;;;5040557;28;20069;-77
2024/01/19 11:42:35;;;;;;;;;;;128.00;2252.80;;;;;;5010670;28;19956;-78
2024/01/19 11:45:01;;;;;;;;;;;128.00;2252.80;;;;;;5013273;28;19917;-78
2024/01/19 11:47:35;;;;;;;;;;;103.30;2227.20;;;;;;5012636;28;19921;-78
2024/01/19 11:50:08;;;;;;;;;;;103.30;2227.20;;;;;;5018504;28;19913;-77
2024/01/19 11:52:35;;;;;;;;;;;128.00;2252.80;;;;;;5010817;28;19917;-78
2024/01/19 11:55:19;;;;;;;;;;;103.30;2227.20;;;;;;5019488;28;19935;-76
2024/01/19 11:57:45;;;;;;;;;;;128.00;2252.80;;;;;;5032671;28;19916;-77
2024/01/19 12:00:11;;;;;;;;;;;103.30;2227.20;;;;;;5033577;28;19913;-77
2024/01/19 12:02:38;;;;;;;;;;;128.00;2252.80;;;;;;5015858;28;19988;-77
2024/01/19 12:05:07;;;;;;;;;;;103.30;2227.20;;;;;;5033527;28;19915;-74
2024/01/19 12:07:33;;;;;;;;;;;103.30;1996.80;;;;;;5015449;28;19913;-77
2024/01/19 12:10:19;;;;;;;;;;;128.20;2201.60;;;;;;5030966;28;19909;-78
2024/01/19 12:12:46;;;;;;;;;;;128.10;2252.80;;;;;;5008312;28;19915;-77
2024/01/19 12:15:14;;;;;;;;;;;128.00;2252.80;;;;;;5015445;28;20324;-78
2024/01/19 12:17:43;;;;;;;;;;;128.10;2252.80;;;;;;5015780;28;19924;-77
2024/01/19 12:20:16;;;;;;;;;;;128.10;2252.80;;;;;;5043900;28;19917;-76
2024/01/19 12:22:42;;;;;;;;;;;128.00;2252.80;;;;;;5007186;28;19909;-77
2024/01/19 12:25:11;;;;;;;;;;;128.20;2252.80;;;;;;5015973;28;20007;-77
2024/01/19 12:27:37;;;;;;;;;;;128.10;2252.80;;;;;;5031068;28;20360;-77
2024/01/19 12:30:08;;;;;;;;;;;128.10;2252.80;;;;;;5011295;28;19920;-76
2024/01/19 12:32:34;;;;;;;;;;;128.20;2252.80;;;;;;5043769;28;20000;-77
2024/01/19 12:35:01;;;;;;;;;;;128.10;2252.80;;;;;;5041059;28;19917;-78
2024/01/19 12:37:27;;;;;;;;;;;128.20;2252.80;;;;;;5014856;28;19924;-77
2024/01/19 12:39:52;;;;;;;;;;;128.20;2252.80;;;;;;5015461;28;19909;-78
2024/01/19 12:42:19;;;;;;;;;;;128.30;2252.80;;;;;;5033256;28;19924;-77
2024/01/19 12:44:45;;;;;;;;;;;128.30;2252.80;;;;;;5030988;28;19909;-77
2024/01/19 12:47:11;;;;;;;;;;;128.20;2252.80;;;;;;5012459;28;20423;-76
2024/01/19 12:49:38;;;;;;;;;;;128.30;2252.80;;;;;;5004863;28;19909;-77
2024/01/19 12:52:03;;;;;;;;;;;128.30;2252.80;;;;;;5014206;28;19917;-77
2024/01/19 12:54:42;;;;;;;;;;;128.20;2252.80;;;;;;5031277;28;20289;-77
2024/01/19 12:57:15;;;;;;;;;;;128.20;2252.80;;;;;;5015388;28;20388;-77
2024/01/19 12:59:40;;;;;;;;;;;128.20;2252.80;;;;;;5009619;28;19967;-78
2024/01/19 13:02:09;;;;;;;;;;;128.20;2252.80;;;;;;5044651;28;20108;-78
2024/01/19 13:04:34;;;;;;;;;;;128.20;2252.80;;;;;;5015277;28;19952;-79
2024/01/19 13:07:00;;;;;;;;;;;128.20;2252.80;;;;;;5010730;28;19963;-77
2024/01/19 13:09:25;;;;;;;;;;;103.30;2227.20;;;;;;5031802;28;19913;-77
2024/01/19 13:11:52;;;;;;;;;;;103.20;2227.20;;;;;;5030959;28;20391;-77
2024/01/19 13:14:27;;;;;;;;;;;103.30;2227.20;;;;;;5030705;28;20387;-78
2024/01/19 13:16:54;;;;;;;;;;;103.30;2227.20;;;;;;5031477;28;19924;-77
2024/01/19 13:19:20;;;;;;;;;;;128.00;2252.80;;;;;;5015247;28;19916;-77
2024/01/19 13:21:45;;;;;;;;;;;128.20;2252.80;;;;;;5028451;28;19909;-78
2024/01/19 13:24:11;;;;;;;;;;;103.30;2227.20;;;;;;5010934;28;19990;-77
2024/01/19 13:26:37;;;;;;;;;;;103.30;2227.20;;;;;;5029102;28;19931;-77
2024/01/19 13:29:02;;;;;;;;;;;103.30;2227.20;;;;;;5008753;28;19909;-76
2024/01/19 13:31:28;;;;;;;;;;;103.20;2227.20;;;;;;5031447;28;19914;-77
2024/01/19 13:33:54;;;;;;;;;;;103.10;2227.20;;;;;;5015123;28;19913;-78
2024/01/19 13:36:19;;;;;;;;;;;103.00;2227.20;;;;;;5024717;28;19929;-77
2024/01/19 13:38:45;;;;;;;;;;;103.00;2227.20;;;;;;5014078;28;20012;-77